Time;durP1;ratioP1;P1;durP2;ratioP2;P2;SDS_P1;SDS_P2;PMS_P1;PMS_P2;Temp;Humidity;BMP_temperature;BMP_pressure;BME280_temperature;BME280_humidity;BME280_pressure;Samples;Min_cycle;Max_cycle;Signal;HPM_P1;HPM_P2
2022/06/26 00:01:03;;;;;;;13.95;12.55;;;;;;;20.13;70.96;101117.94;4962973;28;20027;-68
2022/06/26 00:03:29;;;;;;;13.45;12.07;;;;;;;20.08;71.35;101115.19;4968963;28;20037;-68
2022/06/26 00:05:55;;;;;;;13.85;12.57;;;;;;;20.06;71.31;101115.50;4972762;28;20113;-68
2022/06/26 00:08:21;;;;;;;12.90;11.70;;;;;;;20.11;71.17;101106.94;4971340;28;20118;-68
2022/06/26 00:10:47;;;;;;;13.60;12.27;;;;;;;20.08;70.98;101109.56;4968270;28;20375;-68
2022/06/26 00:13:12;;;;;;;13.25;11.95;;;;;;;20.06;71.06;101120.31;4971233;28;20089;-68
2022/06/26 00:15:38;;;;;;;13.15;11.77;;;;;;;20.05;70.86;101119.47;4962815;28;20031;-69
2022/06/26 00:18:04;;;;;;;13.35;12.10;;;;;;;20.05;71.51;101115.84;4972347;28;20028;-68
2022/06/26 00:20:29;;;;;;;12.75;11.55;;;;;;;20.07;70.95;101125.63;4970794;28;20042;-68
2022/06/26 00:22:54;;;;;;;12.48;11.27;;;;;;;20.05;71.41;101116.66;4972364;28;20536;-68
2022/06/26 00:25:20;;;;;;;12.38;11.18;;;;;;;20.05;71.26;101127.94;4977381;28;20038;-68
2022/06/26 00:27:46;;;;;;;12.93;11.63;;;;;;;20.05;71.11;101130.75;4978847;28;20552;-68
2022/06/26 00:30:13;;;;;;;11.88;10.68;;;;;;;20.01;71.17;101129.69;4977657;28;20039;-67
2022/06/26 00:32:39;;;;;;;11.65;10.55;;;;;;;20.05;71.10;101129.91;4971069;28;20039;-68
2022/06/26 00:35:05;;;;;;;12.00;10.82;;;;;;;19.98;70.93;101135.13;4968646;28;20101;-68
2022/06/26 00:37:30;;;;;;;10.80;9.68;;;;;;;20.03;70.86;101137.84;4971413;28;20417;-68
2022/06/26 00:39:55;;;;;;;12.07;10.88;;;;;;;20.00;70.62;101144.09;4962299;28;20030;-68
2022/06/26 00:42:21;;;;;;;10.98;10.05;;;;;;;19.96;71.13;101154.31;4961972;28;20031;-68
2022/06/26 00:44:46;;;;;;;10.80;9.68;;;;;;;19.97;70.32;101144.72;4972255;28;20030;-68
2022/06/26 00:47:11;;;;;;;11.30;10.20;;;;;;;19.98;70.55;101152.84;4982297;28;20035;-68
2022/06/26 00:49:39;;;;;;;11.93;10.48;;;;;;;19.97;70.58;101159.66;4963984;28;20490;-67
2022/06/26 00:52:05;;;;;;;11.57;10.38;;;;;;;19.95;70.74;101156.28;4962003;28;20094;-68
2022/06/26 00:54:31;;;;;;;11.90;10.70;;;;;;;19.90;70.63;101161.19;4968454;28;20046;-67
2022/06/26 00:56:57;;;;;;;11.68;10.40;;;;;;;19.91;70.58;101176.94;4971016;28;20026;-68
2022/06/26 00:59:24;;;;;;;12.45;11.20;;;;;;;19.88;70.64;101181.19;4969009;28;20169;-67
2022/06/26 01:01:50;;;;;;;13.05;11.65;;;;;;;19.85;70.19;101171.41;4972041;28;20466;-67
2022/06/26 01:04:16;;;;;;;13.07;11.80;;;;;;;19.83;70.44;101168.03;4971145;28;20062;-67
2022/06/26 01:06:42;;;;;;;13.13;11.93;;;;;;;19.78;70.80;101167.31;4970752;28;20026;-67
2022/06/26 01:09:10;;;;;;;16.02;13.13;;;;;;;19.73;70.98;101168.22;4959547;28;20118;-67
2022/06/26 01:11:35;;;;;;;14.80;13.30;;;;;;;19.72;70.95;101172.16;4963474;28;20023;-68
2022/06/26 01:14:01;;;;;;;15.30;13.80;;;;;;;19.73;70.94;101175.81;4971902;28;20034;-67
2022/06/26 01:16:26;;;;;;;14.77;13.43;;;;;;;19.77;70.90;101166.47;4969317;28;20498;-68
2022/06/26 01:18:54;;;;;;;15.15;13.13;;;;;;;19.75;70.96;101173.53;4969898;28;20030;-68
2022/06/26 01:21:21;;;;;;;14.55;13.25;;;;;;;19.74;70.81;101186.78;4971279;28;20036;-68
2022/06/26 01:23:47;;;;;;;16.13;14.48;;;;;;;19.69;71.14;101180.38;4971357;28;20039;-68
2022/06/26 01:26:13;;;;;;;15.57;14.10;;;;;;;19.75;71.05;101185.63;4970428;28;20045;-68
2022/06/26 01:28:38;;;;;;;15.43;13.80;;;;;;;19.69;70.82;101180.38;4973471;28;20382;-68
2022/06/26 01:31:04;;;;;;;14.63;13.27;;;;;;;19.72;70.66;101186.25;4969105;28;20039;-68
2022/06/26 01:33:30;;;;;;;15.95;14.43;;;;;;;19.67;70.85;101197.59;4959875;28;20035;-68
2022/06/26 01:35:55;;;;;;;15.98;14.48;;;;;;;19.65;70.85;101188.66;4954675;28;20516;-68
2022/06/26 01:38:23;;;;;;;16.08;14.63;;;;;;;19.65;70.95;101190.59;4952288;28;20045;-68
2022/06/26 01:40:51;;;;;;;16.88;15.27;;;;;;;19.63;70.70;101193.72;4959318;28;20030;-68
2022/06/26 01:43:19;;;;;;;17.17;15.48;;;;;;;19.65;70.86;101187.78;4981012;28;20038;-68
2022/06/26 01:45:52;;;;;;;16.85;15.32;;;;;;;19.64;70.48;101188.94;4983516;28;20517;-68
2022/06/26 01:48:19;;;;;;;18.00;16.15;;;;;;;19.55;70.74;101189.59;4977708;28;20363;-68
2022/06/26 01:50:45;;;;;;;19.75;16.48;;;;;;;19.54;70.70;101189.91;4974089;28;20081;-68
2022/06/26 01:53:12;;;;;;;17.73;15.98;;;;;;;19.52;70.60;101190.19;4965855;28;20158;-68
2022/06/26 01:55:37;;;;;;;19.20;16.95;;;;;;;19.50;70.41;101186.03;4967981;28;20054;-68
2022/06/26 01:58:03;;;;;;;19.35;17.35;;;;;;;19.52;70.32;101178.94;4967305;28;20118;-68
2022/06/26 02:00:29;;;;;;;19.38;17.48;;;;;;;19.48;70.47;101180.69;4971689;28;20420;-68
2022/06/26 02:02:55;;;;;;;19.02;17.23;;;;;;;19.45;70.60;101180.47;4976153;28;20039;-68
2022/06/26 02:05:20;;;;;;;18.98;16.98;;;;;;;19.51;70.65;101174.44;4964063;28;20043;-68
2022/06/26 02:07:46;;;;;;;19.60;17.67;;;;;;;19.42;70.66;101169.84;4972661;28;20118;-68
2022/06/26 02:15:39;;;;;;;20.27;18.23;;;;;;;19.40;70.82;101160.84;4969803;28;20046;-68
2022/06/26 02:18:05;;;;;;;19.85;17.75;;;;;;;19.43;70.51;101160.25;4974034;28;20043;-68
2022/06/26 02:20:30;;;;;;;18.70;16.90;;;;;;;19.42;71.08;101156.59;4966843;28;20027;-68
2022/06/26 02:22:55;;;;;;;18.95;17.08;;;;;;;19.43;70.58;101152.63;4963628;28;20043;-68
2022/06/26 02:25:21;;;;;;;19.42;17.45;;;;;;;19.39;70.63;101157.19;4973596;28;20085;-68
2022/06/26 02:27:48;;;;;;;18.88;16.88;;;;;;;19.48;70.25;101154.53;4958693;28;20442;-68
2022/06/26 02:30:13;;;;;;;20.13;17.27;;;;;;;19.38;70.43;101159.19;4955409;28;20066;-68
2022/06/26 02:32:38;;;;;;;19.20;17.25;;;;;;;19.37;70.43;101160.31;4969201;28;20023;-68
2022/06/26 02:35:04;;;;;;;18.20;16.35;;;;;;;19.34;70.51;101172.19;4974519;28;20035;-68
2022/06/26 02:37:29;;;;;;;17.73;15.80;;;;;;;19.34;69.90;101182.63;4971113;28;20049;-68
2022/06/26 02:39:54;;;;;;;16.85;15.15;;;;;;;19.32;69.57;101171.63;4970462;28;20038;-68
2022/06/26 02:42:20;;;;;;;17.35;14.68;;;;;;;19.21;69.38;101175.75;4972078;28;20114;-69
2022/06/26 02:44:45;;;;;;;18.38;14.63;;;;;;;19.23;69.39;101190.34;4973790;28;20035;-68
2022/06/26 02:47:10;;;;;;;14.98;13.05;;;;;;;19.11;68.90;101187.16;4976801;28;20470;-69
2022/06/26 02:49:35;;;;;;;17.15;12.38;;;;;;;19.16;68.88;101181.44;4972571;28;20031;-68
2022/06/26 02:52:01;;;;;;;13.75;11.57;;;;;;;19.16;68.56;101191.88;4971907;28;20577;-68
2022/06/26 02:54:26;;;;;;;16.58;12.20;;;;;;;19.11;68.33;101204.88;4955052;28;20042;-68
2022/06/26 02:56:51;;;;;;;13.57;11.60;;;;;;;19.12;68.17;101192.47;4955309;28;20043;-68
2022/06/26 02:59:17;;;;;;;13.02;11.60;;;;;;;19.09;68.54;101192.22;4964212;28;20057;-68
2022/06/26 03:01:42;;;;;;;13.57;12.00;;;;;;;19.02;68.60;101203.88;4978804;28;20034;-69
2022/06/26 03:04:07;;;;;;;13.50;11.50;;;;;;;19.00;68.47;101196.88;4974158;28;20055;-69
2022/06/26 03:06:33;;;;;;;13.27;11.65;;;;;;;18.93;68.38;101213.28;4973950;28;20027;-69
2022/06/26 03:08:58;;;;;;;17.38;12.02;;;;;;;18.97;68.57;101211.53;4968463;28;20383;-69
2022/06/26 03:11:23;;;;;;;16.35;12.00;;;;;;;18.94;68.34;101209.31;4960478;28;20027;-68
2022/06/26 03:13:49;;;;;;;16.30;11.93;;;;;;;18.97;68.64;101214.34;4964250;28;20035;-68
2022/06/26 03:16:14;;;;;;;17.25;11.32;;;;;;;18.91;68.46;101222.03;4966214;28;20035;-68
2022/06/26 03:18:39;;;;;;;15.05;11.30;;;;;;;18.91;68.57;101224.84;4973348;28;20034;-68
2022/06/26 03:21:05;;;;;;;14.10;11.60;;;;;;;18.91;68.74;101230.47;4983210;28;20488;-69
2022/06/26 03:26:15;;;;;;;15.10;11.82;;;;;;;18.84;68.39;101241.22;4974118;28;20046;-68
2022/06/26 03:28:40;;;;;;;15.52;11.52;;;;;;;18.77;68.54;101235.13;4970736;28;20030;-68
2022/06/26 03:31:05;;;;;;;18.17;11.38;;;;;;;18.75;68.53;101235.44;4971512;28;20406;-68
2022/06/26 03:33:31;;;;;;;13.77;11.30;;;;;;;18.73;68.57;101229.25;4972383;28;20038;-68
2022/06/26 03:35:56;;;;;;;14.02;10.98;;;;;;;18.78;68.23;101233.97;4970165;28;20077;-68
2022/06/26 03:38:21;;;;;;;13.10;10.57;;;;;;;18.77;68.33;101252.00;4969033;28;20501;-68
2022/06/26 03:40:46;;;;;;;12.95;10.63;;;;;;;18.74;68.06;101255.41;4954129;29;20034;-68
2022/06/26 03:43:12;;;;;;;12.85;10.57;;;;;;;18.70;68.12;101254.28;4953741;28;20023;-68
2022/06/26 03:45:41;;;;;;;10.95;9.57;;;;;;;18.68;68.10;101260.22;4958243;28;20817;-68
2022/06/26 03:48:06;;;;;;;13.88;10.32;;;;;;;18.58;68.05;101268.75;4970772;28;20034;-68
2022/06/26 03:50:32;;;;;;;15.13;10.80;;;;;;;18.58;68.18;101266.78;4973725;28;20051;-68
2022/06/26 03:52:57;;;;;;;12.98;10.25;;;;;;;18.59;67.95;101260.03;4970885;28;20041;-68
2022/06/26 03:55:22;;;;;;;13.13;9.68;;;;;;;18.60;68.18;101267.31;4971191;28;20117;-68
2022/06/26 03:57:47;;;;;;;11.93;9.63;;;;;;;18.56;68.05;101273.84;4969052;28;20031;-68
2022/06/26 04:00:14;;;;;;;11.15;9.18;;;;;;;18.41;67.93;101263.59;4973535;28;20089;-68
2022/06/26 04:02:40;;;;;;;13.43;9.45;;;;;;;18.42;68.04;101261.59;4971487;28;20037;-68
2022/06/26 04:05:06;;;;;;;12.50;8.82;;;;;;;18.45;67.86;101255.41;4970687;28;20034;-68
2022/06/26 04:07:31;;;;;;;10.27;8.38;;;;;;;18.38;68.24;101248.13;4956532;28;20035;-68
2022/06/26 04:09:57;;;;;;;12.02;9.00;;;;;;;18.35;67.72;101248.75;4973037;28;20037;-68
2022/06/26 04:12:22;;;;;;;11.95;8.65;;;;;;;18.38;68.18;101270.63;4967527;28;20056;-68
2022/06/26 04:14:47;;;;;;;11.45;8.10;;;;;;;18.39;68.32;101258.28;4965898;28;20050;-69
2022/06/26 04:17:14;;;;;;;13.38;8.48;;;;;;;18.36;68.39;101256.03;4968561;28;20109;-68
2022/06/26 04:19:39;;;;;;;14.18;8.30;;;;;;;18.37;67.88;101259.69;4959398;28;20030;-68
2022/06/26 04:22:06;;;;;;;10.85;8.65;;;;;;;18.32;68.28;101273.78;4968276;28;20513;-68
2022/06/26 04:24:31;;;;;;;12.23;8.90;;;;;;;18.29;68.22;101269.59;4971514;28;20034;-68
2022/06/26 04:26:56;;;;;;;10.43;8.15;;;;;;;18.31;68.22;101272.97;4970362;28;20035;-68
2022/06/26 04:29:22;;;;;;;11.35;8.20;;;;;;;18.29;68.32;101282.81;4970856;28;20138;-68
2022/06/26 04:31:47;;;;;;;14.05;8.80;;;;;;;18.33;67.90;101290.34;4967629;28;20118;-68
2022/06/26 04:34:13;;;;;;;13.85;9.10;;;;;;;18.27;68.03;101302.75;4973893;28;20068;-68
2022/06/26 04:36:38;;;;;;;10.57;8.13;;;;;;;18.23;68.51;101298.84;4990360;28;20038;-69
2022/06/26 04:39:03;;;;;;;10.50;7.90;;;;;;;18.16;68.50;101312.44;4954017;28;20039;-68
2022/06/26 04:41:32;;;;;;;12.52;8.50;;;;;;;18.20;68.46;101315.50;4962180;28;20050;-68
2022/06/26 04:43:57;;;;;;;11.05;8.38;;;;;;;18.24;68.64;101314.59;4956991;28;20070;-68
2022/06/26 04:46:23;;;;;;;9.65;7.75;;;;;;;18.27;68.60;101316.81;4952495;28;20050;-68
2022/06/26 04:48:48;;;;;;;10.90;8.73;;;;;;;18.29;68.61;101324.97;4970867;28;20031;-68
2022/06/26 04:51:14;;;;;;;14.38;8.80;;;;;;;18.28;68.78;101332.56;4989322;28;20049;-68
2022/06/26 04:53:39;;;;;;;12.45;8.95;;;;;;;18.33;69.24;101324.06;4956907;28;20045;-68
2022/06/26 04:56:05;;;;;;;10.45;8.35;;;;;;;18.37;69.01;101327.13;4956338;28;20031;-68
2022/06/26 04:58:30;;;;;;;10.18;7.53;;;;;;;18.35;68.73;101324.63;4971558;28;20458;-68
2022/06/26 05:00:55;;;;;;;10.63;8.45;;;;;;;18.38;68.93;101323.19;4970206;28;20420;-68
2022/06/26 05:03:21;;;;;;;12.85;8.68;;;;;;;18.38;69.05;101324.03;4972402;28;20058;-68
2022/06/26 05:05:46;;;;;;;12.90;8.70;;;;;;;18.35;68.61;101327.44;4972392;28;20479;-68
2022/06/26 05:08:11;;;;;;;14.38;9.32;;;;;;;18.31;69.04;101325.50;4971771;28;20041;-68
2022/06/26 05:10:37;;;;;;;13.40;8.32;;;;;;;18.38;69.03;101326.00;4963133;28;20030;-68
2022/06/26 05:13:02;;;;;;;14.45;8.88;;;;;;;18.38;68.56;101323.19;4953699;29;20042;-69
2022/06/26 05:15:27;;;;;;;14.38;9.23;;;;;;;18.30;68.58;101326.63;4969494;28;20125;-68
2022/06/26 05:17:53;;;;;;;17.23;8.48;;;;;;;18.33;68.82;101332.50;4975249;28;20101;-69
2022/06/26 05:20:18;;;;;;;13.20;8.68;;;;;;;18.43;68.63;101333.53;4963396;28;20027;-68
2022/06/26 05:22:43;;;;;;;12.43;8.48;;;;;;;18.46;68.55;101330.97;4964699;28;20031;-68
2022/06/26 05:25:09;;;;;;;13.77;8.68;;;;;;;18.43;68.80;101339.16;4973114;28;20035;-68
2022/06/26 05:27:34;;;;;;;12.38;8.80;;;;;;;18.47;68.35;101331.81;4974026;28;20041;-68
2022/06/26 05:29:59;;;;;;;12.07;8.40;;;;;;;18.45;68.05;101334.94;4973861;28;20031;-68
2022/06/26 05:32:25;;;;;;;16.67;8.85;;;;;;;18.50;68.14;101325.63;4976770;28;20042;-68
2022/06/26 05:34:50;;;;;;;14.70;8.52;;;;;;;18.56;68.06;101324.44;4958880;28;20029;-68
2022/06/26 05:37:15;;;;;;;15.38;8.43;;;;;;;18.57;68.21;101323.31;4969941;28;20039;-68
2022/06/26 05:39:41;;;;;;;13.20;8.48;;;;;;;18.64;67.37;101337.88;4956203;28;20101;-68
2022/06/26 05:42:06;;;;;;;14.95;8.82;;;;;;;18.56;67.59;101341.31;4959151;28;20038;-68
2022/06/26 05:44:32;;;;;;;13.95;8.95;;;;;;;18.59;67.92;101347.19;4959117;28;20059;-68
2022/06/26 05:47:00;;;;;;;13.27;8.68;;;;;;;18.67;67.78;101347.66;4981190;28;20393;-68
2022/06/26 05:49:25;;;;;;;12.88;7.95;;;;;;;18.68;67.62;101363.41;4975213;28;20042;-68
2022/06/26 05:51:50;;;;;;;17.05;9.35;;;;;;;18.73;67.40;101364.22;4973559;28;20051;-68
2022/06/26 05:54:16;;;;;;;11.70;7.50;;;;;;;18.82;67.13;101368.09;4974596;28;20030;-68
2022/06/26 05:56:41;;;;;;;15.55;8.43;;;;;;;18.89;67.35;101373.34;4973913;28;20116;-68
2022/06/26 05:59:06;;;;;;;14.45;8.27;;;;;;;18.95;67.27;101382.59;4958058;28;20031;-68
2022/06/26 06:01:31;;;;;;;14.23;8.38;;;;;;;19.03;67.08;101368.72;4971949;28;20636;-68
2022/06/26 06:03:57;;;;;;;12.40;8.30;;;;;;;19.11;66.67;101375.69;4973044;28;20069;-67
2022/06/26 06:06:22;;;;;;;13.68;8.10;;;;;;;19.02;66.35;101380.25;4974665;28;20026;-68
2022/06/26 06:08:48;;;;;;;11.35;7.35;;;;;;;19.09;65.70;101381.59;4975003;28;20072;-68
2022/06/26 06:11:14;;;;;;;13.50;7.85;;;;;;;19.09;66.43;101378.75;4974773;28;20054;-68
2022/06/26 06:13:39;;;;;;;11.25;7.63;;;;;;;19.18;66.19;101381.78;4967603;28;20035;-69
2022/06/26 06:16:06;;;;;;;15.68;7.75;;;;;;;19.21;66.33;101374.72;4966902;28;20023;-69
2022/06/26 06:18:33;;;;;;;11.95;8.30;;;;;;;19.11;65.16;101376.50;4962042;28;20057;-68
2022/06/26 06:20:59;;;;;;;9.10;6.28;;;;;;;19.20;65.48;101376.69;4969904;28;20036;-68
2022/06/26 06:23:24;;;;;;;11.02;6.97;;;;;;;19.22;65.66;101368.81;4964393;28;20028;-68
2022/06/26 06:25:49;;;;;;;14.05;8.27;;;;;;;19.14;65.80;101369.47;4971616;28;20463;-68
2022/06/26 06:28:15;;;;;;;12.55;6.95;;;;;;;19.15;65.72;101365.50;4973326;28;20042;-68
2022/06/26 06:30:40;;;;;;;12.93;7.13;;;;;;;19.11;65.97;101378.50;4972064;28;20030;-68
2022/06/26 06:33:05;;;;;;;10.60;7.10;;;;;;;19.16;65.76;101384.06;4961864;28;20039;-68
2022/06/26 06:35:31;;;;;;;11.55;6.70;;;;;;;19.18;65.99;101393.06;4966580;28;20549;-68
2022/06/26 06:37:56;;;;;;;15.82;7.10;;;;;;;19.16;66.04;101395.31;4981195;28;20115;-68
2022/06/26 06:40:22;;;;;;;10.63;6.32;;;;;;;19.16;66.37;101394.47;4977346;28;20034;-68
2022/06/26 06:42:47;;;;;;;10.82;6.43;;;;;;;19.20;66.30;101393.56;4973596;28;20087;-69
2022/06/26 06:45:13;;;;;;;10.95;6.72;;;;;;;19.24;65.89;101402.25;4975997;28;20031;-68
2022/06/26 06:47:38;;;;;;;8.55;5.82;;;;;;;19.24;66.02;101414.34;4968047;28;20046;-68
2022/06/26 06:50:04;;;;;;;9.95;7.10;;;;;;;19.20;66.12;101421.72;4974717;28;20046;-68
2022/06/26 06:52:30;;;;;;;11.95;6.75;;;;;;;19.19;66.35;101419.22;4975431;28;20030;-68
2022/06/26 06:54:55;;;;;;;9.40;6.68;;;;;;;19.19;66.19;101434.13;4985169;28;20038;-68
2022/06/26 06:57:20;;;;;;;10.80;6.35;;;;;;;19.19;66.26;101441.72;4985107;28;20490;-68
2022/06/26 06:59:46;;;;;;;10.93;6.05;;;;;;;19.22;66.17;101447.59;4987409;28;20042;-68
2022/06/26 07:02:11;;;;;;;10.65;6.72;;;;;;;19.22;66.16;101450.41;4973868;28;20475;-68
2022/06/26 07:04:36;;;;;;;9.20;6.55;;;;;;;19.26;66.14;101462.75;4971935;28;20033;-68
2022/06/26 07:07:02;;;;;;;11.82;6.00;;;;;;;19.21;66.52;101465.59;4968723;28;20399;-68
2022/06/26 07:09:28;;;;;;;10.27;7.15;;;;;;;19.26;66.58;101467.56;4979539;28;20482;-68
2022/06/26 07:11:53;;;;;;;9.25;6.47;;;;;;;19.30;67.00;101463.84;4978975;28;20037;-69
2022/06/26 07:14:18;;;;;;;11.27;6.35;;;;;;;19.40;67.10;101470.50;4970589;28;20106;-69
2022/06/26 07:16:44;;;;;;;10.35;6.05;;;;;;;19.43;66.08;101473.56;4970753;28;20026;-68
2022/06/26 07:19:09;;;;;;;8.57;5.53;;;;;;;19.48;65.49;101476.31;4973135;28;20145;-69
2022/06/26 07:21:34;;;;;;;10.55;6.43;;;;;;;19.37;65.19;101474.72;4987709;28;20118;-69
2022/06/26 07:24:00;;;;;;;8.82;5.72;;;;;;;19.41;65.16;101464.56;4964220;28;20065;-69
2022/06/26 07:26:26;;;;;;;8.43;5.32;;;;;;;19.44;65.13;101460.31;4978233;28;20054;-68
2022/06/26 07:28:51;;;;;;;11.45;6.40;;;;;;;19.43;65.89;101469.91;4973702;28;20382;-69
2022/06/26 07:31:16;;;;;;;6.78;5.22;;;;;;;19.45;65.32;101476.88;4968934;28;20032;-69
2022/06/26 07:36:26;;;;;;;10.35;5.93;;;;;;;19.41;64.94;101489.88;4969778;28;20121;-68
2022/06/26 07:38:51;;;;;;;8.32;5.85;;;;;;;19.36;65.29;101485.16;4975397;28;20472;-68
2022/06/26 07:41:16;;;;;;;8.52;5.38;;;;;;;19.38;64.59;101476.44;4973487;28;20430;-68
2022/06/26 07:43:42;;;;;;;10.35;6.00;;;;;;;19.38;64.64;101479.25;4973601;28;20042;-68
2022/06/26 07:46:07;;;;;;;6.75;5.30;;;;;;;19.37;64.44;101475.59;4992329;28;20022;-69
2022/06/26 07:48:33;;;;;;;9.45;5.40;;;;;;;19.33;64.84;101482.94;4985573;28;20038;-68
2022/06/26 07:50:58;;;;;;;8.70;5.72;;;;;;;19.35;65.16;101483.47;4986164;28;20565;-69
2022/06/26 07:53:24;;;;;;;8.13;5.20;;;;;;;19.35;65.48;101480.66;4973072;28;20394;-68
2022/06/26 07:55:49;;;;;;;7.68;4.97;;;;;;;19.35;65.27;101483.47;4973338;28;20085;-68
2022/06/26 07:58:14;;;;;;;6.22;4.53;;;;;;;19.34;65.00;101487.44;4975506;28;20049;-68
2022/06/26 08:00:39;;;;;;;6.72;4.60;;;;;;;19.36;64.63;101487.13;4975847;28;20122;-69
2022/06/26 08:03:06;;;;;;;7.70;5.43;;;;;;;19.38;64.68;101494.16;4972806;28;20090;-69
2022/06/26 08:05:46;;;;;;;7.20;5.10;;;;;;;19.36;65.32;101499.22;4972937;28;20069;-69
2022/06/26 08:08:12;;;;;;;6.30;4.65;;;;;;;19.41;64.93;101501.16;4970845;28;20406;-69
2022/06/26 08:10:38;;;;;;;8.82;5.07;;;;;;;19.41;65.29;101500.31;4969839;28;20041;-68
2022/06/26 08:13:06;;;;;;;7.18;5.18;;;;;;;19.39;64.92;101503.44;4969373;28;20049;-69
2022/06/26 08:15:32;;;;;;;5.95;4.75;;;;;;;19.41;64.54;101508.75;4971297;28;20096;-69
2022/06/26 08:17:57;;;;;;;6.35;4.38;;;;;;;19.36;64.31;101499.22;4972516;28;20023;-69
2022/06/26 08:20:22;;;;;;;7.75;4.35;;;;;;;19.41;64.64;101503.97;4974556;28;20058;-68
2022/06/26 08:22:48;;;;;;;6.97;5.18;;;;;;;19.40;65.23;101502.28;4979124;28;20023;-70
2022/06/26 08:25:13;;;;;;;5.45;3.85;;;;;;;19.58;65.33;101510.00;4969359;28;20122;-68
2022/06/26 08:27:38;;;;;;;4.32;3.40;;;;;;;19.74;66.03;101504.22;4968757;28;20030;-70
2022/06/26 08:30:05;;;;;;;5.28;4.65;;;;;;;19.65;64.21;101515.31;4972915;28;20036;-78
2022/06/26 08:32:31;;;;;;;3.53;2.88;;;;;;;19.77;65.17;101504.47;4970227;28;20030;-69
2022/06/26 08:34:56;;;;;;;8.65;4.00;;;;;;;19.77;64.80;101498.00;4975488;28;20395;-68
2022/06/26 08:37:21;;;;;;;3.83;3.47;;;;;;;19.88;64.30;101493.06;4979325;28;20042;-66
2022/06/26 08:39:47;;;;;;;4.70;4.10;;;;;;;19.85;63.30;101497.34;4973097;28;20034;-67
2022/06/26 08:42:13;;;;;;;6.38;3.45;;;;;;;19.94;64.32;101491.88;4971377;28;20478;-67
2022/06/26 08:44:43;;;;;;;4.15;2.70;;;;;;;20.02;63.69;101505.31;4974036;28;20537;-67
2022/06/26 08:47:13;;;;;;;5.13;3.33;;;;;;;20.03;63.58;101509.78;4984876;28;20038;-68
2022/06/26 08:49:40;;;;;;;4.35;3.53;;;;;;;19.90;62.37;101516.16;4976291;28;20029;-68
2022/06/26 08:52:06;;;;;;;5.07;3.90;;;;;;;19.83;62.21;101516.50;4986894;28;20450;-67
2022/06/26 08:54:32;;;;;;;7.00;4.03;;;;;;;19.74;62.42;101513.50;4976070;28;20034;-66
2022/06/26 08:56:58;;;;;;;6.22;3.67;;;;;;;19.94;65.94;101518.06;4975536;28;20973;-67
2022/06/26 08:59:24;;;;;;;7.85;3.97;;;;;;;19.90;62.66;101516.16;4982770;28;20474;-65
2022/06/26 09:01:50;;;;;;;17.15;10.32;;;;;;;19.69;61.38;101510.75;4981527;28;20115;-64
2022/06/26 09:04:16;;;;;;;4.47;3.10;;;;;;;19.90;63.48;101507.72;4982204;28;20037;-64
2022/06/26 09:06:43;;;;;;;3.50;3.00;;;;;;;19.89;63.08;101512.50;4983047;28;20039;-65
2022/06/26 09:09:23;;;;;;;6.13;4.38;;;;;;;19.92;62.91;101520.34;4970418;28;20124;-67
2022/06/26 09:11:49;;;;;;;5.57;3.53;;;;;;;19.94;62.30;101514.41;4980454;28;20046;-67
2022/06/26 09:14:15;;;;;;;5.53;2.85;;;;;;;20.07;62.83;101510.84;4980393;28;20379;-69
2022/06/26 09:16:46;;;;;;;4.60;2.88;;;;;;;20.08;62.25;101512.53;4974957;28;20554;-68
2022/06/26 09:19:13;;;;;;;5.43;3.08;;;;;;;19.99;61.57;101509.53;4977334;28;20039;-69
2022/06/26 09:21:39;;;;;;;4.90;2.72;;;;;;;20.09;61.78;101506.59;4978548;28;20038;-65
2022/06/26 09:24:12;;;;;;;4.15;3.10;;;;;;;20.14;61.70;101508.53;4980880;28;20038;-71
2022/06/26 09:26:41;;;;;;;4.45;3.13;;;;;;;20.14;61.28;101516.97;4982594;28;20484;-70
2022/06/26 09:29:20;;;;;;;8.80;2.90;;;;;;;20.16;61.66;101516.66;4979996;28;20393;-71
2022/06/26 09:31:45;;;;;;;3.88;2.55;;;;;;;20.22;61.27;101524.75;4972608;28;20026;-69
2022/06/26 09:34:22;;;;;;;4.63;2.83;;;;;;;20.20;61.91;101531.81;4969854;28;20031;-69
2022/06/26 09:36:57;;;;;;;5.50;3.10;;;;;;;20.13;61.84;101531.38;4967848;28;20038;-69
2022/06/26 09:39:23;;;;;;;4.85;3.50;;;;;;;20.02;60.80;101508.94;4979065;28;20110;-67
2022/06/26 09:41:48;;;;;;;4.38;2.60;;;;;;;20.07;61.47;101508.88;4980375;28;20113;-69
2022/06/26 09:44:20;;;;;;;4.50;2.55;;;;;;;20.19;61.60;101519.72;4973657;28;20038;-69
2022/06/26 09:46:46;;;;;;;6.60;3.08;;;;;;;20.05;59.84;101532.88;4966858;28;20039;-70
2022/06/26 09:49:11;;;;;;;3.92;2.40;;;;;;;20.06;60.67;101528.91;4974144;28;20041;-70
2022/06/26 09:51:38;;;;;;;3.95;2.53;;;;;;;20.17;60.92;101522.00;4975559;28;20509;-69
2022/06/26 09:54:04;;;;;;;4.32;2.70;;;;;;;20.06;60.39;101521.28;4980249;28;20595;-66
2022/06/26 09:56:31;;;;;;;7.63;3.22;;;;;;;20.08;60.68;101524.66;4977143;28;20041;-74
2022/06/26 09:58:58;;;;;;;6.22;3.38;;;;;;;19.96;60.54;101538.31;4973535;28;20101;-69
2022/06/26 10:06:56;;;;;;;3.30;2.70;;;;;;;20.11;60.44;101542.94;4987274;28;20085;-68
2022/06/26 10:09:22;;;;;;;5.90;2.85;;;;;;;20.20;60.85;101541.16;4985674;28;20555;-69
2022/06/26 10:11:47;;;;;;;4.15;2.50;;;;;;;20.28;61.00;101540.47;4982090;28;20038;-70
2022/06/26 10:14:17;;;;;;;5.75;3.00;;;;;;;20.10;60.74;101538.44;4974470;28;20437;-68
2022/06/26 10:17:04;;;;;;;4.85;2.75;;;;;;;20.06;60.52;101551.47;4983853;28;20034;-68
2022/06/26 10:19:50;;;;;;;4.00;2.60;;;;;;;19.97;60.98;101554.09;4970055;28;20030;-69
2022/06/26 10:22:15;;;;;;;4.50;2.38;;;;;;;20.08;61.22;101561.31;4975968;28;20033;-68
2022/06/26 10:24:56;;;;;;;3.92;2.75;;;;;;;20.08;61.05;101558.50;4978841;28;20706;-69
2022/06/26 10:27:30;;;;;;;5.63;3.05;;;;;;;20.03;60.49;101554.88;4980907;28;20471;-67
2022/06/26 10:30:13;;;;;;;5.75;3.10;;;;;;;20.04;61.04;101551.78;4966304;28;20026;-67
2022/06/26 10:32:39;;;;;;;7.10;2.85;;;;;;;19.97;59.29;101551.28;4972978;28;20035;-71
2022/06/26 10:35:05;;;;;;;7.95;3.05;;;;;;;20.13;61.15;101549.13;4971690;28;20042;-70
2022/06/26 10:37:45;;;;;;;5.70;3.20;;;;;;;20.03;60.68;101554.88;4979102;28;20142;-67
2022/06/26 10:43:19;;;;;;;4.10;3.30;;;;;;;20.18;60.91;101551.03;4969498;28;20463;-71
2022/06/26 10:45:44;;;;;;;8.23;4.35;;;;;;;20.13;59.67;101554.75;4975885;28;21073;-68
2022/06/26 10:48:23;;;;;;;7.03;2.70;;;;;;;20.33;60.50;101551.69;4975238;28;20031;-68
2022/06/26 10:51:01;;;;;;;8.02;2.85;;;;;;;20.54;60.39;101554.25;4970529;28;20541;-69
2022/06/26 10:53:30;;;;;;;6.10;2.97;;;;;;;20.57;60.29;101556.47;4968817;28;20035;-69
2022/06/26 10:56:02;;;;;;;6.32;3.72;;;;;;;20.57;59.77;101553.66;4970119;28;20101;-69
2022/06/26 10:58:35;;;;;;;3.13;2.53;;;;;;;20.66;59.75;101557.47;4966516;28;20430;-68
2022/06/26 11:01:03;;;;;;;7.88;2.95;;;;;;;20.52;58.37;101559.38;4972175;28;20040;-70
2022/06/26 11:03:30;;;;;;;5.30;2.83;;;;;;;20.54;58.51;101563.53;4971909;28;20026;-72
2022/06/26 11:05:59;;;;;;;8.32;3.20;;;;;;;20.47;58.83;101563.03;4975212;28;20060;-67
2022/06/26 11:08:35;;;;;;;5.55;2.92;;;;;;;20.55;60.09;101558.75;4966710;28;20035;-68
2022/06/26 11:11:02;;;;;;;6.47;2.80;;;;;;;20.51;58.83;101557.66;4965822;28;20602;-69
2022/06/26 11:13:27;;;;;;;6.57;2.97;;;;;;;20.46;57.96;101549.25;4975524;28;20031;-68
2022/06/26 11:15:53;;;;;;;6.05;2.63;;;;;;;20.53;58.96;101547.78;4978882;28;20036;-69
2022/06/26 11:18:18;;;;;;;4.45;2.65;;;;;;;20.61;59.09;101537.78;4976733;28;20093;-70
2022/06/26 11:20:47;;;;;;;6.65;2.53;;;;;;;20.71;58.65;101542.44;4968984;28;20039;-69
2022/06/26 11:23:27;;;;;;;9.05;2.78;;;;;;;20.68;58.52;101537.44;4983219;28;20049;-72
2022/06/26 11:25:55;;;;;;;5.05;2.50;;;;;;;20.78;58.59;101526.81;4975950;28;20041;-65
2022/06/26 11:28:27;;;;;;;7.30;2.70;;;;;;;20.77;58.68;101530.78;4963199;28;20026;-67
2022/06/26 11:30:52;;;;;;;3.63;2.30;;;;;;;20.87;58.51;101535.44;4966305;28;20479;-67
2022/06/26 11:33:26;;;;;;;6.55;3.05;;;;;;;20.92;58.23;101531.69;4973104;28;20077;-67